Euless, TX (76040)

12:19 PM CDT on September 29, 2016 (GMT -0500)
Oakwood Terrace North | | Change Station

Elev 582 ft 32.83 °N, 97.12 °W | Updated 5 seconds ago

Scattered Clouds
Scattered Clouds
74.3 °F
Feels Like 77 °F
N
2.0
Wind Variable Wind from North
Gusts 8.7 mph

Today
High -- | Low -- °F
--% Chance of Precip.
Yesterday
High -- | Low -- °F
Precip. -- in
Pressure 30.28 in
Visibility 10.0 miles
Clouds Scattered Clouds 30000 ft
Heat Index 77 °F
Dew Point 53 °F
Humidity 47%
Rainfall 0.00 in
Snow Depth Not available.
7:21 AM 7:14 PM
Waning Crescent, 2% visible
METAR KDFW 291653Z 03006KT 10SM SCT300 23/09 A3030 RMK AO2 SLP252 T02280094 $
Pressure 30.28 in
Visibility 10.0 miles
Clouds Scattered Clouds 30000 ft
Heat Index 77 °F
Dew Point 53 °F
Humidity 47%
Rainfall 0.00 in
Snow Depth Not available.
7:21 AM 7:14 PM
Waning Crescent, 2% visible
METAR KDFW 291653Z 03006KT 10SM SCT300 23/09 A3030 RMK AO2 SLP252 T02280094 $

10-Day Weather Forecast

Almanac

Astronomy

Sep. 29, 2016 Rise Set
Actual Time
Civil Twilight
Nautical Twilight
Astronomical Twilight
Moon
Length of Visible Light
Length of Day
Tomorrow will be .
, % of the Moon is Illuminated

Today's Extremes

State Highs State Lows

Community

WunderPhotos

Upload Photos

1,942,522 photos uploaded!

WunderBlog® & News

Nearby

Air Quality

  Air Quality AQ Index Pollutant
Not available.

Snow Depth

Station Depth Elevation

Earthquake Activity

City Distance Mag. Time & Date
Minimum magnitude displayed is 2.5.

Coastal Water Temperatures

Place Temperature

Stations

Nearby Weather Stations

Station Location Temp. Windchill Dew Point Humidity Wind Precip. Elev Updated Type
                   

Watches & Warnings

There are currently no watches in effect.